sensor_id;sensor_type;location;lat;lon;timestamp;temperature;humidity
21171;DHT22;10743;52.160;20.910;2023-02-28T00:04:07;14.20;37.60
21171;DHT22;10743;52.160;20.910;2023-02-28T00:06:36;14.10;37.70
21171;DHT22;10743;52.160;20.910;2023-02-28T00:09:03;13.90;37.70
21171;DHT22;10743;52.160;20.910;2023-02-28T00:11:30;14.00;35.70
21171;DHT22;10743;52.160;20.910;2023-02-28T00:16:25;14.20;34.00
21171;DHT22;10743;52.160;20.910;2023-02-28T00:28:45;13.90;43.10
21171;DHT22;10743;52.160;20.910;2023-02-28T00:36:10;13.60;32.90
21171;DHT22;10743;52.160;20.910;2023-02-28T00:38:38;9.90;29.80
21171;DHT22;10743;52.160;20.910;2023-02-28T00:41:07;13.80;43.10
21171;DHT22;10743;52.160;20.910;2023-02-28T00:43:36;14.40;43.10
21171;DHT22;10743;52.160;20.910;2023-02-28T00:46:04;13.80;42.80
21171;DHT22;10743;52.160;20.910;2023-02-28T01:05:55;13.50;41.70
21171;DHT22;10743;52.160;20.910;2023-02-28T01:08:30;13.40;35.80
21171;DHT22;10743;52.160;20.910;2023-02-28T01:16:04;13.40;32.00
21171;DHT22;10743;52.160;20.910;2023-02-28T01:18:34;13.30;39.90
21171;DHT22;10743;52.160;20.910;2023-02-28T01:21:13;13.10;41.40
21171;DHT22;10743;52.160;20.910;2023-02-28T01:23:45;13.20;40.70
21171;DHT22;10743;52.160;20.910;2023-02-28T01:26:32;13.30;32.00
21171;DHT22;10743;52.160;20.910;2023-02-28T01:33:56;13.40;42.40
21171;DHT22;10743;52.160;20.910;2023-02-28T01:36:29;13.60;49.00
21171;DHT22;10743;52.160;20.910;2023-02-28T01:38:56;13.40;54.80
21171;DHT22;10743;52.160;20.910;2023-02-28T01:41:28;13.30;32.20
21171;DHT22;10743;52.160;20.910;2023-02-28T01:44:03;13.20;48.00
21171;DHT22;10743;52.160;20.910;2023-02-28T01:46:34;13.30;32.10
21171;DHT22;10743;52.160;20.910;2023-02-28T01:49:09;13.40;40.70
21171;DHT22;10743;52.160;20.910;2023-02-28T01:51:46;13.40;39.80
21171;DHT22;10743;52.160;20.910;2023-02-28T01:54:27;13.20;39.80
21171;DHT22;10743;52.160;20.910;2023-02-28T01:59:45;13.30;39.70
21171;DHT22;10743;52.160;20.910;2023-02-28T02:02:42;13.40;39.80
21171;DHT22;10743;52.160;20.910;2023-02-28T02:05:15;13.20;39.60
21171;DHT22;10743;52.160;20.910;2023-02-28T02:07:46;13.20;32.10
21171;DHT22;10743;52.160;20.910;2023-02-28T02:10:21;13.10;39.80
21171;DHT22;10743;52.160;20.910;2023-02-28T02:19:16;13.20;35.60
21171;DHT22;10743;52.160;20.910;2023-02-28T02:28:12;12.80;33.40
21171;DHT22;10743;52.160;20.910;2023-02-28T02:33:32;13.30;33.50
21171;DHT22;10743;52.160;20.910;2023-02-28T02:36:24;13.20;33.20
21171;DHT22;10743;52.160;20.910;2023-02-28T02:41:45;13.20;33.20
21171;DHT22;10743;52.160;20.910;2023-02-28T02:44:25;13.10;32.90
21171;DHT22;10743;52.160;20.910;2023-02-28T02:47:21;13.00;32.80
21171;DHT22;10743;52.160;20.910;2023-02-28T02:50:04;13.10;32.80
21171;DHT22;10743;52.160;20.910;2023-02-28T02:52:48;13.10;32.80
21171;DHT22;10743;52.160;20.910;2023-02-28T02:55:22;13.10;32.90
21171;DHT22;10743;52.160;20.910;2023-02-28T02:58:05;13.10;32.90
21171;DHT22;10743;52.160;20.910;2023-02-28T03:00:42;13.10;33.00
21171;DHT22;10743;52.160;20.910;2023-02-28T03:03:14;13.10;33.10
21171;DHT22;10743;52.160;20.910;2023-02-28T03:05:48;13.10;33.10
21171;DHT22;10743;52.160;20.910;2023-02-28T03:08:17;13.10;33.20
21171;DHT22;10743;52.160;20.910;2023-02-28T03:10:48;13.00;33.00
21171;DHT22;10743;52.160;20.910;2023-02-28T03:16:33;13.10;32.90
21171;DHT22;10743;52.160;20.910;2023-02-28T03:31:00;13.10;32.80
21171;DHT22;10743;52.160;20.910;2023-02-28T03:33:38;13.10;32.80
21171;DHT22;10743;52.160;20.910;2023-02-28T03:36:13;13.10;32.80
21171;DHT22;10743;52.160;20.910;2023-02-28T03:38:58;13.10;32.80
21171;DHT22;10743;52.160;20.910;2023-02-28T03:42:00;13.10;32.80
21171;DHT22;10743;52.160;20.910;2023-02-28T03:44:36;13.10;32.30
21171;DHT22;10743;52.160;20.910;2023-02-28T03:47:13;13.10;32.90
21171;DHT22;10743;52.160;20.910;2023-02-28T03:49:48;13.10;32.80
21171;DHT22;10743;52.160;20.910;2023-02-28T03:52:37;13.10;32.80
21171;DHT22;10743;52.160;20.910;2023-02-28T03:55:13;13.10;32.80
21171;DHT22;10743;52.160;20.910;2023-02-28T03:57:58;13.10;32.80
21171;DHT22;10743;52.160;20.910;2023-02-28T04:00:34;13.10;32.80
21171;DHT22;10743;52.160;20.910;2023-02-28T04:03:05;13.10;32.90
21171;DHT22;10743;52.160;20.910;2023-02-28T04:05:33;13.10;32.90
21171;DHT22;10743;52.160;20.910;2023-02-28T04:08:21;13.10;32.80
21171;DHT22;10743;52.160;20.910;2023-02-28T04:11:00;13.10;32.80
21171;DHT22;10743;52.160;20.910;2023-02-28T04:13:33;13.10;32.80
21171;DHT22;10743;52.160;20.910;2023-02-28T04:16:00;13.10;32.80
21171;DHT22;10743;52.160;20.910;2023-02-28T04:18:28;13.10;32.80
21171;DHT22;10743;52.160;20.910;2023-02-28T04:20:55;13.10;32.80
21171;DHT22;10743;52.160;20.910;2023-02-28T04:23:22;13.00;32.80
21171;DHT22;10743;52.160;20.910;2023-02-28T04:25:49;13.10;32.80
21171;DHT22;10743;52.160;20.910;2023-02-28T04:28:17;13.10;33.50
21171;DHT22;10743;52.160;20.910;2023-02-28T04:30:44;13.00;32.90
21171;DHT22;10743;52.160;20.910;2023-02-28T04:33:11;13.00;32.90
21171;DHT22;10743;52.160;20.910;2023-02-28T04:35:39;13.00;33.00
21171;DHT22;10743;52.160;20.910;2023-02-28T04:38:06;13.00;32.90
21171;DHT22;10743;52.160;20.910;2023-02-28T04:40:33;13.00;33.00
21171;DHT22;10743;52.160;20.910;2023-02-28T04:43:00;15.20;34.10
21171;DHT22;10743;52.160;20.910;2023-02-28T04:45:27;13.00;32.90
21171;DHT22;10743;52.160;20.910;2023-02-28T04:47:56;13.00;32.90
21171;DHT22;10743;52.160;20.910;2023-02-28T04:50:24;13.00;32.90
21171;DHT22;10743;52.160;20.910;2023-02-28T04:52:51;13.00;33.00
21171;DHT22;10743;52.160;20.910;2023-02-28T04:55:18;13.00;33.00
21171;DHT22;10743;52.160;20.910;2023-02-28T04:57:45;13.00;33.00
21171;DHT22;10743;52.160;20.910;2023-02-28T05:00:12;13.00;33.10
21171;DHT22;10743;52.160;20.910;2023-02-28T05:02:42;13.00;33.00
21171;DHT22;10743;52.160;20.910;2023-02-28T05:05:09;13.00;33.00
21171;DHT22;10743;52.160;20.910;2023-02-28T05:07:36;13.00;33.00
21171;DHT22;10743;52.160;20.910;2023-02-28T05:10:03;12.80;33.20
21171;DHT22;10743;52.160;20.910;2023-02-28T05:12:32;12.90;32.90
21171;DHT22;10743;52.160;20.910;2023-02-28T05:14:59;13.00;33.00
21171;DHT22;10743;52.160;20.910;2023-02-28T05:17:28;12.90;33.00
21171;DHT22;10743;52.160;20.910;2023-02-28T05:19:55;13.10;33.00
21171;DHT22;10743;52.160;20.910;2023-02-28T05:22:40;13.20;33.10
21171;DHT22;10743;52.160;20.910;2023-02-28T05:25:12;13.20;32.90
21171;DHT22;10743;52.160;20.910;2023-02-28T05:27:42;13.30;32.90
21171;DHT22;10743;52.160;20.910;2023-02-28T05:30:10;13.40;32.80
21171;DHT22;10743;52.160;20.910;2023-02-28T05:32:38;13.40;32.60
21171;DHT22;10743;52.160;20.910;2023-02-28T05:35:06;13.40;32.60
21171;DHT22;10743;52.160;20.910;2023-02-28T05:37:33;13.50;32.60
21171;DHT22;10743;52.160;20.910;2023-02-28T05:40:01;13.50;32.70
21171;DHT22;10743;52.160;20.910;2023-02-28T05:42:32;13.50;32.60
21171;DHT22;10743;52.160;20.910;2023-02-28T05:45:00;13.60;32.60
21171;DHT22;10743;52.160;20.910;2023-02-28T05:47:27;13.60;32.50
21171;DHT22;10743;52.160;20.910;2023-02-28T05:49:54;13.60;32.50
21171;DHT22;10743;52.160;20.910;2023-02-28T05:52:21;13.70;32.60
21171;DHT22;10743;52.160;20.910;2023-02-28T05:54:49;13.70;32.50
21171;DHT22;10743;52.160;20.910;2023-02-28T05:57:16;13.70;32.50
21171;DHT22;10743;52.160;20.910;2023-02-28T05:59:50;13.70;32.30
21171;DHT22;10743;52.160;20.910;2023-02-28T06:02:18;13.70;32.40
21171;DHT22;10743;52.160;20.910;2023-02-28T06:04:45;13.80;32.50
21171;DHT22;10743;52.160;20.910;2023-02-28T06:07:13;13.80;32.50
21171;DHT22;10743;52.160;20.910;2023-02-28T06:09:40;13.80;32.50
21171;DHT22;10743;52.160;20.910;2023-02-28T06:12:07;13.80;32.50
21171;DHT22;10743;52.160;20.910;2023-02-28T06:14:36;13.80;32.50
21171;DHT22;10743;52.160;20.910;2023-02-28T06:17:03;13.80;32.40
21171;DHT22;10743;52.160;20.910;2023-02-28T06:19:31;13.80;32.30
21171;DHT22;10743;52.160;20.910;2023-02-28T06:21:59;13.80;32.30
21171;DHT22;10743;52.160;20.910;2023-02-28T06:24:26;13.90;32.50
21171;DHT22;10743;52.160;20.910;2023-02-28T06:26:55;13.90;32.70
21171;DHT22;10743;52.160;20.910;2023-02-28T06:29:22;14.00;32.70
21171;DHT22;10743;52.160;20.910;2023-02-28T06:31:49;14.00;32.60
21171;DHT22;10743;52.160;20.910;2023-02-28T06:34:17;14.10;32.50
21171;DHT22;10743;52.160;20.910;2023-02-28T06:36:44;14.10;32.50
21171;DHT22;10743;52.160;20.910;2023-02-28T06:39:11;14.20;32.50
21171;DHT22;10743;52.160;20.910;2023-02-28T06:41:38;14.20;32.40
21171;DHT22;10743;52.160;20.910;2023-02-28T06:44:21;14.30;32.40
21171;DHT22;10743;52.160;20.910;2023-02-28T06:46:49;14.30;32.40
21171;DHT22;10743;52.160;20.910;2023-02-28T06:49:16;14.30;32.20
21171;DHT22;10743;52.160;20.910;2023-02-28T06:51:44;14.40;32.30
21171;DHT22;10743;52.160;20.910;2023-02-28T06:54:12;14.40;32.40
21171;DHT22;10743;52.160;20.910;2023-02-28T06:56:39;14.40;32.40
21171;DHT22;10743;52.160;20.910;2023-02-28T06:59:06;14.50;32.40
21171;DHT22;10743;52.160;20.910;2023-02-28T07:01:34;14.50;32.40
21171;DHT22;10743;52.160;20.910;2023-02-28T07:04:01;14.60;32.50
21171;DHT22;10743;52.160;20.910;2023-02-28T07:06:28;14.60;32.60
21171;DHT22;10743;52.160;20.910;2023-02-28T07:08:55;14.70;32.60
21171;DHT22;10743;52.160;20.910;2023-02-28T07:11:26;14.80;32.40
21171;DHT22;10743;52.160;20.910;2023-02-28T07:13:55;14.90;32.50
21171;DHT22;10743;52.160;20.910;2023-02-28T07:16:24;15.00;32.40
21171;DHT22;10743;52.160;20.910;2023-02-28T07:18:53;15.00;32.20
21171;DHT22;10743;52.160;20.910;2023-02-28T07:21:20;15.10;31.60
21171;DHT22;10743;52.160;20.910;2023-02-28T07:23:48;15.20;31.40
21171;DHT22;10743;52.160;20.910;2023-02-28T07:26:17;15.20;31.10
21171;DHT22;10743;52.160;20.910;2023-02-28T07:28:46;15.20;30.90
21171;DHT22;10743;52.160;20.910;2023-02-28T07:31:15;15.30;30.90
21171;DHT22;10743;52.160;20.910;2023-02-28T07:33:43;15.40;30.40
21171;DHT22;10743;52.160;20.910;2023-02-28T07:36:13;15.50;30.40
21171;DHT22;10743;52.160;20.910;2023-02-28T07:38:46;15.60;30.30
21171;DHT22;10743;52.160;20.910;2023-02-28T07:41:18;15.70;30.30
21171;DHT22;10743;52.160;20.910;2023-02-28T07:43:47;15.80;30.20
21171;DHT22;10743;52.160;20.910;2023-02-28T07:46:16;15.90;29.90
21171;DHT22;10743;52.160;20.910;2023-02-28T07:48:44;16.10;29.60
21171;DHT22;10743;52.160;20.910;2023-02-28T07:51:12;16.30;29.10
21171;DHT22;10743;52.160;20.910;2023-02-28T07:53:39;16.40;29.80
21171;DHT22;10743;52.160;20.910;2023-02-28T07:56:06;16.50;28.50
21171;DHT22;10743;52.160;20.910;2023-02-28T07:58:34;16.70;28.30
21171;DHT22;10743;52.160;20.910;2023-02-28T08:01:08;16.80;28.60
21171;DHT22;10743;52.160;20.910;2023-02-28T08:03:37;16.90;28.30
21171;DHT22;10743;52.160;20.910;2023-02-28T08:06:06;17.00;28.20
21171;DHT22;10743;52.160;20.910;2023-02-28T08:08:36;17.20;27.90
21171;DHT22;10743;52.160;20.910;2023-02-28T08:11:04;17.20;27.60
21171;DHT22;10743;52.160;20.910;2023-02-28T08:13:31;17.20;27.20
21171;DHT22;10743;52.160;20.910;2023-02-28T08:16:01;17.20;27.60
21171;DHT22;10743;52.160;20.910;2023-02-28T08:18:29;17.30;27.50
21171;DHT22;10743;52.160;20.910;2023-02-28T08:20:56;17.40;27.20
21171;DHT22;10743;52.160;20.910;2023-02-28T08:23:24;17.40;27.20
21171;DHT22;10743;52.160;20.910;2023-02-28T08:25:55;17.40;27.00
21171;DHT22;10743;52.160;20.910;2023-02-28T08:28:23;17.40;26.90
21171;DHT22;10743;52.160;20.910;2023-02-28T08:30:53;17.50;27.50
21171;DHT22;10743;52.160;20.910;2023-02-28T08:33:22;17.50;27.10
21171;DHT22;10743;52.160;20.910;2023-02-28T08:35:53;17.50;26.70
21171;DHT22;10743;52.160;20.910;2023-02-28T08:38:21;17.60;27.00
21171;DHT22;10743;52.160;20.910;2023-02-28T08:40:49;17.60;27.30
21171;DHT22;10743;52.160;20.910;2023-02-28T08:43:16;17.70;27.00
21171;DHT22;10743;52.160;20.910;2023-02-28T08:45:43;17.60;26.80
21171;DHT22;10743;52.160;20.910;2023-02-28T08:48:11;17.80;26.70
21171;DHT22;10743;52.160;20.910;2023-02-28T08:50:38;17.80;26.80
21171;DHT22;10743;52.160;20.910;2023-02-28T08:53:05;17.80;26.90
21171;DHT22;10743;52.160;20.910;2023-02-28T08:55:32;17.90;26.60
21171;DHT22;10743;52.160;20.910;2023-02-28T08:57:59;18.00;25.90
21171;DHT22;10743;52.160;20.910;2023-02-28T09:00:28;18.00;26.10
21171;DHT22;10743;52.160;20.910;2023-02-28T09:02:55;17.90;26.40
21171;DHT22;10743;52.160;20.910;2023-02-28T09:05:22;17.90;26.60
21171;DHT22;10743;52.160;20.910;2023-02-28T09:07:49;17.90;26.40
21171;DHT22;10743;52.160;20.910;2023-02-28T09:10:16;17.90;26.00
21171;DHT22;10743;52.160;20.910;2023-02-28T09:12:43;18.00;26.20
21171;DHT22;10743;52.160;20.910;2023-02-28T09:15:13;17.90;26.10
21171;DHT22;10743;52.160;20.910;2023-02-28T09:17:40;18.00;26.20
21171;DHT22;10743;52.160;20.910;2023-02-28T09:20:09;18.00;26.20
21171;DHT22;10743;52.160;20.910;2023-02-28T09:22:36;18.00;26.00
21171;DHT22;10743;52.160;20.910;2023-02-28T09:25:04;18.00;26.20
21171;DHT22;10743;52.160;20.910;2023-02-28T09:27:31;18.00;26.20
21171;DHT22;10743;52.160;20.910;2023-02-28T09:29:58;18.00;26.20
21171;DHT22;10743;52.160;20.910;2023-02-28T09:32:25;18.10;26.40
21171;DHT22;10743;52.160;20.910;2023-02-28T09:34:52;18.10;26.00
21171;DHT22;10743;52.160;20.910;2023-02-28T09:37:20;18.20;26.00
21171;DHT22;10743;52.160;20.910;2023-02-28T09:39:47;18.20;25.80
21171;DHT22;10743;52.160;20.910;2023-02-28T09:42:30;18.40;25.70
21171;DHT22;10743;52.160;20.910;2023-02-28T09:45:00;18.40;26.00
21171;DHT22;10743;52.160;20.910;2023-02-28T09:47:34;18.40;26.20
21171;DHT22;10743;52.160;20.910;2023-02-28T09:52:56;18.60;25.60
21171;DHT22;10743;52.160;20.910;2023-02-28T09:55:44;18.60;25.90
21171;DHT22;10743;52.160;20.910;2023-02-28T09:58:26;18.60;25.80
21171;DHT22;10743;52.160;20.910;2023-02-28T10:01:06;18.70;26.00
21171;DHT22;10743;52.160;20.910;2023-02-28T10:03:44;18.80;25.50
21171;DHT22;10743;52.160;20.910;2023-02-28T10:06:19;18.80;25.60
21171;DHT22;10743;52.160;20.910;2023-02-28T10:11:29;18.80;25.50
21171;DHT22;10743;52.160;20.910;2023-02-28T10:22:40;19.10;25.30
21171;DHT22;10743;52.160;20.910;2023-02-28T10:25:23;19.30;25.00
21171;DHT22;10743;52.160;20.910;2023-02-28T10:28:12;19.30;24.70
21171;DHT22;10743;52.160;20.910;2023-02-28T10:30:43;19.40;25.00
21171;DHT22;10743;52.160;20.910;2023-02-28T10:33:26;19.40;25.00
21171;DHT22;10743;52.160;20.910;2023-02-28T10:35:59;19.50;25.10
21171;DHT22;10743;52.160;20.910;2023-02-28T10:38:32;19.50;24.90
21171;DHT22;10743;52.160;20.910;2023-02-28T10:43:35;19.60;24.90
21171;DHT22;10743;52.160;20.910;2023-02-28T10:48:45;19.70;25.10
21171;DHT22;10743;52.160;20.910;2023-02-28T10:51:19;19.70;25.10
21171;DHT22;10743;52.160;20.910;2023-02-28T10:53:54;19.90;24.70
21171;DHT22;10743;52.160;20.910;2023-02-28T10:56:28;19.90;25.10
21171;DHT22;10743;52.160;20.910;2023-02-28T10:59:20;19.90;25.50
21171;DHT22;10743;52.160;20.910;2023-02-28T11:01:48;20.00;24.90
21171;DHT22;10743;52.160;20.910;2023-02-28T11:09:56;20.10;25.00
21171;DHT22;10743;52.160;20.910;2023-02-28T11:12:37;20.10;24.80
21171;DHT22;10743;52.160;20.910;2023-02-28T11:15:50;20.20;24.60
21171;DHT22;10743;52.160;20.910;2023-02-28T11:18:29;20.30;24.90
21171;DHT22;10743;52.160;20.910;2023-02-28T11:21:00;20.30;24.50
21171;DHT22;10743;52.160;20.910;2023-02-28T11:23:31;20.30;24.40
21171;DHT22;10743;52.160;20.910;2023-02-28T11:26:04;20.30;24.70
21171;DHT22;10743;52.160;20.910;2023-02-28T11:28:33;20.30;24.70
21171;DHT22;10743;52.160;20.910;2023-02-28T11:33:54;20.40;24.40
21171;DHT22;10743;52.160;20.910;2023-02-28T11:36:26;20.50;24.40
21171;DHT22;10743;52.160;20.910;2023-02-28T11:39:04;20.50;24.40
21171;DHT22;10743;52.160;20.910;2023-02-28T11:52:55;20.90;23.20
21171;DHT22;10743;52.160;20.910;2023-02-28T11:55:27;20.90;23.50
21171;DHT22;10743;52.160;20.910;2023-02-28T12:01:08;20.80;24.00
21171;DHT22;10743;52.160;20.910;2023-02-28T12:15:38;21.00;23.40
21171;DHT22;10743;52.160;20.910;2023-02-28T12:21:17;21.00;23.60
21171;DHT22;10743;52.160;20.910;2023-02-28T12:29:28;21.10;23.50
21171;DHT22;10743;52.160;20.910;2023-02-28T12:32:04;21.10;24.10
21171;DHT22;10743;52.160;20.910;2023-02-28T12:34:38;21.10;23.90
21171;DHT22;10743;52.160;20.910;2023-02-28T12:37:22;21.10;23.80
21171;DHT22;10743;52.160;20.910;2023-02-28T12:40:16;21.20;23.00
21171;DHT22;10743;52.160;20.910;2023-02-28T12:42:57;21.20;23.20
21171;DHT22;10743;52.160;20.910;2023-02-28T12:48:07;21.20;23.70
21171;DHT22;10743;52.160;20.910;2023-02-28T12:50:38;21.20;23.70
21171;DHT22;10743;52.160;20.910;2023-02-28T12:53:46;21.20;23.70
21171;DHT22;10743;52.160;20.910;2023-02-28T12:56:43;21.30;23.60
21171;DHT22;10743;52.160;20.910;2023-02-28T12:59:15;21.30;23.30
21171;DHT22;10743;52.160;20.910;2023-02-28T13:10:22;21.40;23.80
21171;DHT22;10743;52.160;20.910;2023-02-28T13:12:53;21.40;23.50
21171;DHT22;10743;52.160;20.910;2023-02-28T13:15:24;21.40;23.80
21171;DHT22;10743;52.160;20.910;2023-02-28T13:17:56;21.40;23.90
21171;DHT22;10743;52.160;20.910;2023-02-28T13:20:29;21.40;23.80
21171;DHT22;10743;52.160;20.910;2023-02-28T13:23:03;21.50;23.90
21171;DHT22;10743;52.160;20.910;2023-02-28T13:28:12;21.40;24.00
21171;DHT22;10743;52.160;20.910;2023-02-28T13:39:00;21.60;23.10
21171;DHT22;10743;52.160;20.910;2023-02-28T13:44:20;21.70;23.00
21171;DHT22;10743;52.160;20.910;2023-02-28T13:54:40;21.60;23.60
21171;DHT22;10743;52.160;20.910;2023-02-28T13:57:29;21.50;23.80
21171;DHT22;10743;52.160;20.910;2023-02-28T14:06:16;21.30;23.70
21171;DHT22;10743;52.160;20.910;2023-02-28T14:09:06;21.30;23.40
21171;DHT22;10743;52.160;20.910;2023-02-28T14:11:43;21.20;23.30
21171;DHT22;10743;52.160;20.910;2023-02-28T14:17:08;21.20;23.30
21171;DHT22;10743;52.160;20.910;2023-02-28T14:19:44;21.20;23.20
21171;DHT22;10743;52.160;20.910;2023-02-28T14:31:13;21.20;23.50
21171;DHT22;10743;52.160;20.910;2023-02-28T14:37:00;21.20;23.70
21171;DHT22;10743;52.160;20.910;2023-02-28T14:39:30;21.10;23.70
21171;DHT22;10743;52.160;20.910;2023-02-28T14:41:59;21.10;23.80
21171;DHT22;10743;52.160;20.910;2023-02-28T14:44:31;21.00;23.90
21171;DHT22;10743;52.160;20.910;2023-02-28T14:47:02;21.00;24.10
21171;DHT22;10743;52.160;20.910;2023-02-28T14:49:41;21.00;24.10
21171;DHT22;10743;52.160;20.910;2023-02-28T14:54:40;20.90;24.20
21171;DHT22;10743;52.160;20.910;2023-02-28T14:57:22;20.90;24.10
21171;DHT22;10743;52.160;20.910;2023-02-28T15:00:00;20.90;24.10
21171;DHT22;10743;52.160;20.910;2023-02-28T15:02:34;20.90;23.80
21171;DHT22;10743;52.160;20.910;2023-02-28T15:05:50;20.90;24.10
21171;DHT22;10743;52.160;20.910;2023-02-28T15:08:16;20.80;24.30
21171;DHT22;10743;52.160;20.910;2023-02-28T15:13:23;20.80;24.20
21171;DHT22;10743;52.160;20.910;2023-02-28T15:16:06;20.80;24.40
21171;DHT22;10743;52.160;20.910;2023-02-28T15:18:50;20.70;24.60
21171;DHT22;10743;52.160;20.910;2023-02-28T15:21:29;20.70;24.60
21171;DHT22;10743;52.160;20.910;2023-02-28T15:26:56;20.60;24.70
21171;DHT22;10743;52.160;20.910;2023-02-28T15:29:27;20.60;24.80
21171;DHT22;10743;52.160;20.910;2023-02-28T15:34:36;20.50;24.90
21171;DHT22;10743;52.160;20.910;2023-02-28T15:40:22;20.40;24.90
21171;DHT22;10743;52.160;20.910;2023-02-28T15:43:18;20.40;24.90
21171;DHT22;10743;52.160;20.910;2023-02-28T15:46:11;20.40;24.90
21171;DHT22;10743;52.160;20.910;2023-02-28T15:48:55;20.40;25.00
21171;DHT22;10743;52.160;20.910;2023-02-28T15:51:34;20.30;25.10
21171;DHT22;10743;52.160;20.910;2023-02-28T15:54:07;20.30;25.20
21171;DHT22;10743;52.160;20.910;2023-02-28T15:56:49;20.20;25.20
21171;DHT22;10743;52.160;20.910;2023-02-28T15:59:27;20.20;25.30
21171;DHT22;10743;52.160;20.910;2023-02-28T16:02:47;20.10;25.30
21171;DHT22;10743;52.160;20.910;2023-02-28T16:07:40;20.00;25.30
21171;DHT22;10743;52.160;20.910;2023-02-28T16:10:12;20.00;25.40
21171;DHT22;10743;52.160;20.910;2023-02-28T16:12:41;19.90;25.40
21171;DHT22;10743;52.160;20.910;2023-02-28T16:15:18;19.90;25.50
21171;DHT22;10743;52.160;20.910;2023-02-28T16:17:53;19.80;25.60
21171;DHT22;10743;52.160;20.910;2023-02-28T16:20:30;19.80;25.70
21171;DHT22;10743;52.160;20.910;2023-02-28T16:22:57;19.70;25.80
21171;DHT22;10743;52.160;20.910;2023-02-28T16:25:39;19.70;25.70
21171;DHT22;10743;52.160;20.910;2023-02-28T16:30:47;19.60;25.70
21171;DHT22;10743;52.160;20.910;2023-02-28T16:33:14;19.60;25.80
21171;DHT22;10743;52.160;20.910;2023-02-28T16:35:41;19.50;26.00
21171;DHT22;10743;52.160;20.910;2023-02-28T16:38:08;19.40;26.00
21171;DHT22;10743;52.160;20.910;2023-02-28T16:40:36;19.40;26.00
21171;DHT22;10743;52.160;20.910;2023-02-28T16:43:24;19.30;26.10
21171;DHT22;10743;52.160;20.910;2023-02-28T16:45:56;19.30;26.10
21171;DHT22;10743;52.160;20.910;2023-02-28T16:48:27;19.20;26.30
21171;DHT22;10743;52.160;20.910;2023-02-28T16:50:54;19.20;26.30
21171;DHT22;10743;52.160;20.910;2023-02-28T16:53:21;19.20;26.50
21171;DHT22;10743;52.160;20.910;2023-02-28T16:55:48;19.10;26.50
21171;DHT22;10743;52.160;20.910;2023-02-28T16:58:17;19.10;26.70
21171;DHT22;10743;52.160;20.910;2023-02-28T17:00:46;19.00;26.60
21171;DHT22;10743;52.160;20.910;2023-02-28T17:03:25;18.90;26.70
21171;DHT22;10743;52.160;20.910;2023-02-28T17:05:59;18.90;26.90
21171;DHT22;10743;52.160;20.910;2023-02-28T17:08:26;18.90;26.80
21171;DHT22;10743;52.160;20.910;2023-02-28T17:10:56;18.80;26.70
21171;DHT22;10743;52.160;20.910;2023-02-28T17:13:23;18.80;26.80
21171;DHT22;10743;52.160;20.910;2023-02-28T17:15:50;18.70;26.70
21171;DHT22;10743;52.160;20.910;2023-02-28T17:18:18;18.70;26.90
21171;DHT22;10743;52.160;20.910;2023-02-28T17:20:47;18.70;26.90
21171;DHT22;10743;52.160;20.910;2023-02-28T17:23:14;18.70;27.10
21171;DHT22;10743;52.160;20.910;2023-02-28T17:25:42;18.60;27.20
21171;DHT22;10743;52.160;20.910;2023-02-28T17:28:22;18.60;27.30
21171;DHT22;10743;52.160;20.910;2023-02-28T17:30:50;18.60;27.40
21171;DHT22;10743;52.160;20.910;2023-02-28T17:33:17;18.50;27.30
21171;DHT22;10743;52.160;20.910;2023-02-28T17:35:44;18.50;27.80
21171;DHT22;10743;52.160;20.910;2023-02-28T17:38:17;18.40;27.30
21171;DHT22;10743;52.160;20.910;2023-02-28T17:40:45;18.40;27.40
21171;DHT22;10743;52.160;20.910;2023-02-28T17:43:12;18.40;27.50
21171;DHT22;10743;52.160;20.910;2023-02-28T17:45:41;18.40;27.60
21171;DHT22;10743;52.160;20.910;2023-02-28T17:48:11;18.40;28.10
21171;DHT22;10743;52.160;20.910;2023-02-28T17:50:39;18.30;27.60
21171;DHT22;10743;52.160;20.910;2023-02-28T17:53:06;18.30;27.60
21171;DHT22;10743;52.160;20.910;2023-02-28T17:55:33;18.30;27.60
21171;DHT22;10743;52.160;20.910;2023-02-28T17:58:01;18.30;27.60
21171;DHT22;10743;52.160;20.910;2023-02-28T18:00:29;18.30;27.70
21171;DHT22;10743;52.160;20.910;2023-02-28T18:02:59;18.30;27.90
21171;DHT22;10743;52.160;20.910;2023-02-28T18:05:27;18.20;27.80
21171;DHT22;10743;52.160;20.910;2023-02-28T18:07:54;18.20;27.80
21171;DHT22;10743;52.160;20.910;2023-02-28T18:10:21;18.10;27.90
21171;DHT22;10743;52.160;20.910;2023-02-28T18:12:50;18.10;27.90
21171;DHT22;10743;52.160;20.910;2023-02-28T18:15:19;18.10;28.10
21171;DHT22;10743;52.160;20.910;2023-02-28T18:17:48;18.10;28.00
21171;DHT22;10743;52.160;20.910;2023-02-28T18:20:16;18.10;28.00
21171;DHT22;10743;52.160;20.910;2023-02-28T18:22:44;18.10;28.20
21171;DHT22;10743;52.160;20.910;2023-02-28T18:25:11;18.10;28.20
21171;DHT22;10743;52.160;20.910;2023-02-28T18:27:44;18.00;28.20
21171;DHT22;10743;52.160;20.910;2023-02-28T18:30:29;18.00;28.30
21171;DHT22;10743;52.160;20.910;2023-02-28T18:32:59;18.00;28.30
21171;DHT22;10743;52.160;20.910;2023-02-28T18:35:28;17.90;28.40
21171;DHT22;10743;52.160;20.910;2023-02-28T18:38:12;17.90;28.40
21171;DHT22;10743;52.160;20.910;2023-02-28T18:40:41;17.80;28.50
21171;DHT22;10743;52.160;20.910;2023-02-28T18:43:09;17.80;28.50
21171;DHT22;10743;52.160;20.910;2023-02-28T18:45:37;17.80;28.40
21171;DHT22;10743;52.160;20.910;2023-02-28T18:48:05;17.90;28.30
21171;DHT22;10743;52.160;20.910;2023-02-28T18:50:32;17.90;28.20
21171;DHT22;10743;52.160;20.910;2023-02-28T18:52:59;17.80;28.20
21171;DHT22;10743;52.160;20.910;2023-02-28T18:55:31;17.80;28.40
21171;DHT22;10743;52.160;20.910;2023-02-28T18:57:58;17.70;28.50
21171;DHT22;10743;52.160;20.910;2023-02-28T19:00:25;17.60;28.50
21171;DHT22;10743;52.160;20.910;2023-02-28T19:02:53;17.60;28.60
21171;DHT22;10743;52.160;20.910;2023-02-28T19:05:20;17.70;28.60
21171;DHT22;10743;52.160;20.910;2023-02-28T19:07:47;17.60;28.50
21171;DHT22;10743;52.160;20.910;2023-02-28T19:10:16;17.60;28.50
21171;DHT22;10743;52.160;20.910;2023-02-28T19:12:43;17.60;28.70
21171;DHT22;10743;52.160;20.910;2023-02-28T19:15:11;17.60;29.30
21171;DHT22;10743;52.160;20.910;2023-02-28T19:17:38;17.60;28.70
21171;DHT22;10743;52.160;20.910;2023-02-28T19:20:07;17.50;28.60
21171;DHT22;10743;52.160;20.910;2023-02-28T19:22:35;17.50;28.60
21171;DHT22;10743;52.160;20.910;2023-02-28T19:25:06;17.50;28.60